createdAt,value
2016-09-06T00:00:31.883Z,1040.71
2016-09-06T00:01:30.677Z,1040.71
2016-09-06T00:02:30.672Z,1040.71
2016-09-06T00:03:30.669Z,1040.74
2016-09-06T00:04:30.664Z,1040.74
2016-09-06T00:05:30.658Z,1040.79
2016-09-06T00:06:30.656Z,1040.8
2016-09-06T00:07:30.652Z,1040.82
2016-09-06T00:08:30.646Z,1040.81
2016-09-06T00:09:30.641Z,1040.8
2016-09-06T00:10:30.637Z,1040.83
2016-09-06T00:11:30.631Z,1040.84
2016-09-06T00:12:30.628Z,1040.8
2016-09-06T00:13:30.623Z,1040.83
2016-09-06T00:14:30.619Z,1040.86
2016-09-06T00:15:30.615Z,1040.86
2016-09-06T00:16:30.608Z,1040.91
2016-09-06T00:17:30.601Z,1040.96
2016-09-06T00:18:30.601Z,1040.97
2016-09-06T00:19:30.595Z,1041.01
2016-09-06T00:20:30.589Z,1041.01
2016-09-06T00:21:30.586Z,1041.02
2016-09-06T00:22:30.583Z,1041.03
2016-09-06T00:23:30.574Z,1041.03
2016-09-06T00:24:30.572Z,1041.02
2016-09-06T00:25:30.567Z,1041.05
2016-09-06T00:26:30.562Z,1041.1
2016-09-06T00:27:30.559Z,1041.1
2016-09-06T00:28:30.550Z,1041.13
2016-09-06T00:29:30.549Z,1041.15
2016-09-06T00:30:30.541Z,1041.15
2016-09-06T00:31:30.541Z,1041.18
2016-09-06T00:32:30.532Z,1041.19
2016-09-06T00:33:30.533Z,1041.23
2016-09-06T00:34:30.521Z,1041.26
2016-09-06T00:35:30.522Z,1041.22
2016-09-06T00:36:30.517Z,1041.22
2016-09-06T00:37:30.510Z,1041.23
2016-09-06T00:38:30.506Z,1041.25
2016-09-06T00:39:30.500Z,1041.29
2016-09-06T00:40:30.495Z,1041.26
2016-09-06T00:41:30.494Z,1041.33
2016-09-06T00:42:30.484Z,1041.3
2016-09-06T00:43:30.482Z,1041.32
2016-09-06T00:44:30.474Z,1041.34
2016-09-06T00:45:31.678Z,1041.34
2016-09-06T00:46:30.467Z,1041.37
2016-09-06T00:47:30.902Z,1041.38
2016-09-06T00:48:30.455Z,1041.38
2016-09-06T00:49:30.453Z,1041.42
2016-09-06T00:50:30.445Z,1041.43
2016-09-06T00:51:30.445Z,1041.41
2016-09-06T00:52:30.437Z,1041.44
2016-09-06T00:53:30.432Z,1041.46
2016-09-06T00:54:30.426Z,1041.48
2016-09-06T00:55:30.420Z,1041.5
2016-09-06T00:56:30.419Z,1041.47
2016-09-06T00:57:30.415Z,1041.47
2016-09-06T00:58:30.410Z,1041.49
2016-09-06T00:59:30.402Z,1041.52
2016-09-06T01:00:30.399Z,1041.51
2016-09-06T01:01:30.393Z,1041.52
2016-09-06T01:02:30.389Z,1041.55
2016-09-06T01:03:30.385Z,1041.55
2016-09-06T01:04:30.383Z,1041.57
2016-09-06T01:05:30.376Z,1041.6
2016-09-06T01:06:30.372Z,1041.58
2016-09-06T01:07:30.366Z,1041.62
2016-09-06T01:08:30.363Z,1041.68
2016-09-06T01:09:30.354Z,1041.66
2016-09-06T01:10:30.901Z,1041.69
2016-09-06T01:11:30.346Z,1041.69
2016-09-06T01:12:30.341Z,1041.72
2016-09-06T01:13:30.336Z,1041.74
2016-09-06T01:15:30.380Z,1041.78
2016-09-06T01:16:30.321Z,1041.74
2016-09-06T01:17:30.314Z,1041.79
2016-09-06T01:18:31.008Z,1041.76
2016-09-06T01:19:30.607Z,1041.79
2016-09-06T01:20:30.301Z,1041.76
2016-09-06T01:21:30.298Z,1041.75
2016-09-06T01:22:30.290Z,1041.76
2016-09-06T01:23:30.289Z,1041.75
2016-09-06T01:24:30.280Z,1041.77
2016-09-06T01:25:30.274Z,1041.78
2016-09-06T01:26:30.268Z,1041.8
2016-09-06T01:27:30.266Z,1041.81
2016-09-06T01:28:30.261Z,1041.79
2016-09-06T01:29:30.256Z,1041.8
2016-09-06T01:30:30.249Z,1041.81
2016-09-06T01:31:30.247Z,1041.77
2016-09-06T01:32:30.241Z,1041.83
2016-09-06T01:33:30.236Z,1041.83
2016-09-06T01:34:30.229Z,1041.82
2016-09-06T01:35:30.226Z,1041.88
2016-09-06T01:36:30.221Z,1041.9
2016-09-06T01:37:30.216Z,1041.95
2016-09-06T01:38:30.208Z,1041.99
2016-09-06T01:39:30.207Z,1041.97
2016-09-06T01:40:30.199Z,1042.06
2016-09-06T01:41:30.193Z,1042.05
2016-09-06T01:42:30.188Z,1042.09
2016-09-06T01:43:30.185Z,1042.13
2016-09-06T01:44:30.180Z,1042.14
2016-09-06T01:45:30.171Z,1042.14
2016-09-06T01:46:30.167Z,1042.17
2016-09-06T01:47:30.164Z,1042.19
2016-09-06T01:48:30.159Z,1042.19
2016-09-06T01:49:30.157Z,1042.16
2016-09-06T01:50:30.146Z,1042.16
2016-09-06T01:51:30.145Z,1042.19
2016-09-06T01:52:30.139Z,1042.18
2016-09-06T01:53:30.133Z,1042.19
2016-09-06T01:54:30.126Z,1042.21
2016-09-06T01:55:30.125Z,1042.18
2016-09-06T01:56:30.118Z,1042.2
2016-09-06T01:57:30.109Z,1042.25
2016-09-06T01:58:30.107Z,1042.27
2016-09-06T01:59:30.103Z,1042.23
2016-09-06T02:00:30.096Z,1042.32
2016-09-06T02:01:30.092Z,1042.36
2016-09-06T02:02:30.085Z,1042.44
2016-09-06T02:03:30.830Z,1042.44
2016-09-06T02:04:30.073Z,1042.5
2016-09-06T02:05:30.500Z,1042.53
2016-09-06T02:06:30.067Z,1042.58
2016-09-06T02:07:30.060Z,1042.61
2016-09-06T02:08:30.050Z,1042.65
2016-09-06T02:09:30.048Z,1042.69
2016-09-06T02:10:31.508Z,1042.7
2016-09-06T02:11:30.037Z,1042.7
2016-09-06T02:12:30.028Z,1042.72
2016-09-06T02:13:30.026Z,1042.74
2016-09-06T02:14:30.020Z,1042.75
2016-09-06T02:15:30.015Z,1042.8
2016-09-06T02:16:30.007Z,1042.77
2016-09-06T02:17:30.004Z,1042.79
2016-09-06T02:18:29.999Z,1042.85
2016-09-06T02:19:29.990Z,1042.82
2016-09-06T02:20:29.990Z,1042.89
2016-09-06T02:21:29.979Z,1042.87
2016-09-06T02:22:29.978Z,1042.86
2016-09-06T02:23:29.970Z,1042.9
2016-09-06T02:24:29.965Z,1042.88
2016-09-06T02:25:29.959Z,1042.89
2016-09-06T02:26:29.956Z,1042.9
2016-09-06T02:27:29.948Z,1042.91
2016-09-06T02:28:30.290Z,1042.84
2016-09-06T02:29:29.934Z,1042.89
2016-09-06T02:30:29.933Z,1042.88
2016-09-06T02:31:29.924Z,1042.85
2016-09-06T02:32:29.919Z,1042.87
2016-09-06T02:33:29.915Z,1042.84
2016-09-06T02:34:29.915Z,1042.88
2016-09-06T02:35:29.903Z,1042.85
2016-09-06T02:36:29.894Z,1042.87
2016-09-06T02:37:30.393Z,1042.86
2016-09-06T02:38:29.888Z,1042.87
2016-09-06T02:39:29.881Z,1042.89
2016-09-06T02:40:29.876Z,1042.87
2016-09-06T02:41:29.869Z,1042.9
2016-09-06T02:42:29.861Z,1042.93
2016-09-06T02:43:29.869Z,1042.9
2016-09-06T02:44:29.849Z,1042.9
2016-09-06T02:45:29.846Z,1042.93
2016-09-06T02:46:29.841Z,1042.91
2016-09-06T02:47:29.833Z,1042.94
2016-09-06T02:48:29.827Z,1042.94
2016-09-06T02:49:29.822Z,1042.94
2016-09-06T02:50:29.823Z,1042.97
2016-09-06T02:51:29.811Z,1042.95
2016-09-06T02:52:29.807Z,1042.96
2016-09-06T02:53:29.803Z,1042.97
2016-09-06T02:54:29.793Z,1042.99
2016-09-06T02:55:29.792Z,1043
2016-09-06T02:56:29.780Z,1043.03
2016-09-06T02:57:29.780Z,1043.01
2016-09-06T02:58:29.773Z,1043.03
2016-09-06T02:59:29.764Z,1043.02
2016-09-06T03:00:29.759Z,1043.08
2016-09-06T03:01:29.755Z,1043.05
2016-09-06T03:02:29.752Z,1043.08
2016-09-06T03:03:29.743Z,1043.07
2016-09-06T03:04:29.737Z,1043.06
2016-09-06T03:05:29.729Z,1043.11
2016-09-06T03:06:29.725Z,1043.12
2016-09-06T03:07:29.722Z,1043.11
2016-09-06T03:08:29.717Z,1043.12
2016-09-06T03:09:29.711Z,1043.08
2016-09-06T03:10:29.703Z,1043.16
2016-09-06T03:11:29.698Z,1043.15
2016-09-06T03:12:29.695Z,1043.16
2016-09-06T03:13:29.687Z,1043.18
2016-09-06T03:14:29.681Z,1043.18
2016-09-06T03:15:29.678Z,1043.2
2016-09-06T03:16:29.672Z,1043.18
2016-09-06T03:17:29.663Z,1043.19
2016-09-06T03:18:29.657Z,1043.23
2016-09-06T03:19:29.652Z,1043.24
2016-09-06T03:20:29.646Z,1043.2
2016-09-06T03:21:29.898Z,1043.25
2016-09-06T03:22:29.636Z,1043.26
2016-09-06T03:23:30.057Z,1043.25
2016-09-06T03:24:29.626Z,1043.27
2016-09-06T03:25:29.617Z,1043.28
2016-09-06T03:26:29.613Z,1043.29
2016-09-06T03:27:29.606Z,1043.29
2016-09-06T03:28:29.599Z,1043.32
2016-09-06T03:29:30.468Z,1043.33
2016-09-06T03:30:29.589Z,1043.33
2016-09-06T03:31:29.582Z,1043.37
2016-09-06T03:32:29.578Z,1043.39
2016-09-06T03:33:29.570Z,1043.41
2016-09-06T03:34:29.565Z,1043.43
2016-09-06T03:35:29.559Z,1043.43
2016-09-06T03:36:29.552Z,1043.44
2016-09-06T03:37:29.547Z,1043.49
2016-09-06T03:38:29.541Z,1043.52
2016-09-06T03:39:29.531Z,1043.5
2016-09-06T03:40:29.529Z,1043.53
2016-09-06T03:41:29.523Z,1043.59
2016-09-06T03:42:29.519Z,1043.59
2016-09-06T03:43:29.507Z,1043.63
2016-09-06T03:44:29.505Z,1043.62
2016-09-06T03:45:29.499Z,1043.65
2016-09-06T03:46:29.493Z,1043.68
2016-09-06T03:47:29.486Z,1043.68
2016-09-06T03:48:29.480Z,1043.72
2016-09-06T03:49:29.475Z,1043.7
2016-09-06T03:50:29.467Z,1043.7
2016-09-06T03:51:29.464Z,1043.69
2016-09-06T03:52:29.456Z,1043.68
2016-09-06T03:53:29.451Z,1043.69
2016-09-06T03:54:29.443Z,1043.67
2016-09-06T03:55:29.438Z,1043.7
2016-09-06T03:56:29.432Z,1043.7
2016-09-06T03:57:29.425Z,1043.68
2016-09-06T03:58:29.418Z,1043.72
2016-09-06T03:59:29.413Z,1043.77
2016-09-06T04:00:29.406Z,1043.75
2016-09-06T04:01:29.400Z,1043.76
2016-09-06T04:02:29.395Z,1043.85
2016-09-06T04:03:29.388Z,1043.83
2016-09-06T04:04:29.385Z,1043.87
2016-09-06T04:05:29.378Z,1043.89
2016-09-06T04:06:29.369Z,1043.92
2016-09-06T04:07:29.365Z,1043.96
2016-09-06T04:08:29.361Z,1043.95
2016-09-06T04:09:29.352Z,1043.97
2016-09-06T04:10:29.347Z,1044.02
2016-09-06T04:11:29.341Z,1044.02
2016-09-06T04:12:29.333Z,1044.02
2016-09-06T04:13:29.328Z,1044.05
2016-09-06T04:14:29.320Z,1044.02
2016-09-06T04:15:29.316Z,1044.03
2016-09-06T04:16:29.309Z,1044.05
2016-09-06T04:17:29.305Z,1044.01
2016-09-06T04:18:29.295Z,1044.03
2016-09-06T04:19:29.292Z,1044.05
2016-09-06T04:20:29.284Z,1044.03
2016-09-06T04:21:29.277Z,1044.03
2016-09-06T04:22:29.269Z,1044.02
2016-09-06T04:23:29.263Z,1044.02
2016-09-06T04:24:29.260Z,1044.02
2016-09-06T04:25:29.255Z,1044
2016-09-06T04:26:29.250Z,1044.01
2016-09-06T04:27:29.241Z,1043.98
2016-09-06T04:28:29.237Z,1044
2016-09-06T04:29:29.229Z,1044
2016-09-06T04:30:29.225Z,1044
2016-09-06T04:31:29.214Z,1044.02
2016-09-06T04:32:29.220Z,1044.02
2016-09-06T04:33:29.204Z,1043.98
2016-09-06T04:34:29.200Z,1043.98
2016-09-06T04:35:29.192Z,1043.98
2016-09-06T04:36:29.187Z,1043.95
2016-09-06T04:37:30.202Z,1043.92
2016-09-06T04:38:29.173Z,1043.96
2016-09-06T04:39:29.168Z,1043.9
2016-09-06T04:40:29.162Z,1043.92
2016-09-06T04:41:29.683Z,1043.88
2016-09-06T04:42:29.152Z,1043.89
2016-09-06T04:43:29.144Z,1043.88
2016-09-06T04:44:29.138Z,1043.87
2016-09-06T04:45:29.132Z,1043.85
2016-09-06T04:46:29.124Z,1043.81
2016-09-06T04:47:29.319Z,1043.84
2016-09-06T04:48:29.112Z,1043.78
2016-09-06T04:49:29.110Z,1043.73
2016-09-06T04:50:29.100Z,1043.63
2016-09-06T04:51:29.098Z,1043.62
2016-09-06T04:52:29.089Z,1043.59
2016-09-06T04:53:29.086Z,1043.52
2016-09-06T04:54:29.076Z,1043.44
2016-09-06T04:55:29.072Z,1043.43
2016-09-06T04:56:29.068Z,1043.38
2016-09-06T04:57:29.062Z,1043.34
2016-09-06T04:58:29.054Z,1043.29
2016-09-06T04:59:29.047Z,1043.14
2016-09-06T05:00:29.043Z,1043.12
2016-09-06T05:01:29.037Z,1042.95
2016-09-06T05:02:29.032Z,1042.84
2016-09-06T05:03:30.126Z,1042.76
2016-09-06T05:04:29.020Z,1042.69
2016-09-06T05:05:29.015Z,1042.61
2016-09-06T05:06:29.010Z,1042.49
2016-09-06T05:07:29.006Z,1042.35
2016-09-06T05:08:28.999Z,1042.28
2016-09-06T05:09:28.996Z,1042.17
2016-09-06T05:10:28.989Z,1042.09
2016-09-06T05:11:28.986Z,1041.99
2016-09-06T05:12:28.978Z,1041.89
2016-09-06T05:13:28.976Z,1041.8
2016-09-06T05:14:28.967Z,1041.65
2016-09-06T05:15:28.964Z,1041.55
2016-09-06T05:16:28.961Z,1041.38
2016-09-06T05:17:28.954Z,1041.24
2016-09-06T05:18:28.952Z,1041.16
2016-09-06T05:19:28.947Z,1041.01
2016-09-06T05:20:28.946Z,1040.85
2016-09-06T05:21:28.940Z,1040.78
2016-09-06T05:22:28.936Z,1040.67
2016-09-06T05:23:28.933Z,1040.52
2016-09-06T05:24:28.932Z,1040.46
2016-09-06T05:25:28.925Z,1040.43
2016-09-06T05:26:28.925Z,1040.33
2016-09-06T05:27:28.917Z,1040.17
2016-09-06T05:28:28.917Z,1040
2016-09-06T05:29:28.912Z,1039.86
2016-09-06T05:30:28.909Z,1039.72
2016-09-06T05:31:28.907Z,1039.58
2016-09-06T05:32:28.910Z,1039.39
2016-09-06T05:33:28.901Z,1039.28
2016-09-06T05:34:28.904Z,1039.14
2016-09-06T05:35:28.898Z,1039.2
2016-09-06T05:36:28.900Z,1039.29
2016-09-06T05:37:28.896Z,1039.26
2016-09-06T05:38:28.896Z,1039.09
2016-09-06T05:39:28.893Z,1039.02
2016-09-06T05:40:28.892Z,1038.88
2016-09-06T05:41:28.893Z,1038.7
2016-09-06T05:42:28.891Z,1038.55
2016-09-06T05:43:28.888Z,1038.46
2016-09-06T05:44:28.888Z,1038.31
2016-09-06T05:45:28.891Z,1038.19
2016-09-06T05:46:28.892Z,1038.04
2016-09-06T05:47:28.888Z,1037.9
2016-09-06T05:48:28.887Z,1037.76
2016-09-06T05:49:28.889Z,1037.66
2016-09-06T05:50:28.888Z,1037.61
2016-09-06T05:51:28.893Z,1037.48
2016-09-06T05:52:28.889Z,1037.41
2016-09-06T05:53:28.895Z,1037.34
2016-09-06T05:54:28.894Z,1037.23
2016-09-06T05:55:28.893Z,1037.18
2016-09-06T05:56:30.207Z,1037.19
2016-09-06T05:57:28.903Z,1037.24
2016-09-06T05:58:28.902Z,1037.25
2016-09-06T05:59:29.832Z,1037.34
2016-09-06T06:00:28.903Z,1037.32
2016-09-06T06:01:28.922Z,1037.26
2016-09-06T06:02:28.910Z,1037.23
2016-09-06T06:03:28.917Z,1037.17
2016-09-06T06:04:28.918Z,1037.05
2016-09-06T06:05:29.157Z,1036.95
2016-09-06T06:06:28.924Z,1036.86
2016-09-06T06:07:28.928Z,1036.85
2016-09-06T06:08:29.572Z,1036.77
2016-09-06T06:09:28.935Z,1036.69
2016-09-06T06:10:28.939Z,1036.55
2016-09-06T06:11:28.948Z,1036.48
2016-09-06T06:12:28.949Z,1036.33
2016-09-06T06:13:28.948Z,1036.26
2016-09-06T06:14:28.955Z,1036.14
2016-09-06T06:15:28.958Z,1036.03
2016-09-06T06:16:28.965Z,1035.96
2016-09-06T06:17:28.970Z,1035.88
2016-09-06T06:18:28.975Z,1035.8
2016-09-06T06:19:28.980Z,1035.66
2016-09-06T06:20:28.984Z,1035.48
2016-09-06T06:21:29.691Z,1035.29
2016-09-06T06:22:28.994Z,1035.07
2016-09-06T06:23:29.903Z,1035.04
2016-09-06T06:24:29.007Z,1034.92
2016-09-06T06:25:29.011Z,1034.83
2016-09-06T06:26:29.021Z,1034.77
2016-09-06T06:27:29.024Z,1034.66
2016-09-06T06:28:29.031Z,1034.66
2016-09-06T06:29:29.037Z,1034.61
2016-09-06T06:30:29.044Z,1034.59
2016-09-06T06:31:29.050Z,1034.53
2016-09-06T06:32:29.060Z,1034.63
2016-09-06T06:33:29.065Z,1034.66
2016-09-06T06:34:29.675Z,1034.69
2016-09-06T06:35:29.125Z,1034.61
2016-09-06T06:36:29.085Z,1034.56
2016-09-06T06:37:29.092Z,1034.48
2016-09-06T06:38:29.100Z,1034.49
2016-09-06T06:39:29.106Z,1034.39
2016-09-06T06:40:29.112Z,1034.29
2016-09-06T06:41:29.122Z,1034.12
2016-09-06T06:42:29.126Z,1034.09
2016-09-06T06:43:29.139Z,1034.03
2016-09-06T06:44:29.145Z,1033.96
2016-09-06T06:45:29.155Z,1033.98
2016-09-06T06:46:29.163Z,1033.99
2016-09-06T06:47:29.168Z,1034
2016-09-06T06:48:29.176Z,1033.96
2016-09-06T06:49:29.186Z,1033.94
2016-09-06T06:50:29.194Z,1033.93
2016-09-06T06:51:29.199Z,1033.88
2016-09-06T06:52:29.208Z,1033.88
2016-09-06T06:53:29.220Z,1033.86
2016-09-06T06:54:29.226Z,1033.91
2016-09-06T06:55:29.237Z,1033.96
2016-09-06T06:56:29.244Z,1034.02
2016-09-06T06:57:29.265Z,1034.26
2016-09-06T06:58:29.263Z,1034.38
2016-09-06T06:59:29.270Z,1034.43
2016-09-06T07:00:29.278Z,1034.43
2016-09-06T07:01:29.286Z,1034.42
2016-09-06T07:02:29.299Z,1034.68
2016-09-06T07:03:29.304Z,1034.84
2016-09-06T07:04:29.315Z,1034.92
2016-09-06T07:05:29.325Z,1034.93
2016-09-06T07:06:29.334Z,1035.01
2016-09-06T07:07:29.342Z,1035.02
2016-09-06T07:08:29.348Z,1035.03
2016-09-06T07:09:29.360Z,1035.14
2016-09-06T07:10:29.371Z,1035.06
2016-09-06T07:11:29.377Z,1034.91
2016-09-06T07:12:29.389Z,1034.81
2016-09-06T07:13:29.394Z,1034.88
2016-09-06T07:14:30.472Z,1034.78
2016-09-06T07:15:29.413Z,1034.72
2016-09-06T07:16:29.447Z,1034.68
2016-09-06T07:17:29.430Z,1034.75
2016-09-06T07:18:29.439Z,1034.78
2016-09-06T07:19:29.450Z,1034.79
2016-09-06T07:20:29.459Z,1034.85
2016-09-06T07:21:29.469Z,1034.9
2016-09-06T07:22:29.475Z,1034.83
2016-09-06T07:23:30.752Z,1034.71
2016-09-06T07:24:29.495Z,1034.66
2016-09-06T07:25:29.944Z,1034.59
2016-09-06T07:26:29.511Z,1034.55
2016-09-06T07:27:29.527Z,1034.45
2016-09-06T07:28:29.534Z,1034.31
2016-09-06T07:29:29.887Z,1034.35
2016-09-06T07:30:29.552Z,1034.44
2016-09-06T07:31:29.562Z,1034.58
2016-09-06T07:32:29.575Z,1034.78
2016-09-06T07:33:29.581Z,1034.92
2016-09-06T07:34:29.595Z,1035.02
2016-09-06T07:35:29.600Z,1035.08
2016-09-06T07:36:29.614Z,1035.23
2016-09-06T07:37:29.619Z,1035.2
2016-09-06T07:38:29.627Z,1035.28
2016-09-06T07:39:29.641Z,1035.43
2016-09-06T07:40:29.648Z,1035.38
2016-09-06T07:41:30.108Z,1035.34
2016-09-06T07:42:29.666Z,1035.33
2016-09-06T07:43:29.676Z,1035.34
2016-09-06T07:44:29.686Z,1035.39
2016-09-06T07:45:29.692Z,1035.49
2016-09-06T07:46:29.704Z,1035.42
2016-09-06T07:47:29.713Z,1035.27
2016-09-06T07:48:29.723Z,1035.11
2016-09-06T07:49:29.731Z,1034.96
2016-09-06T07:50:29.740Z,1034.88
2016-09-06T07:51:29.751Z,1034.81
2016-09-06T07:52:29.759Z,1034.74
2016-09-06T07:53:29.768Z,1034.64
2016-09-06T07:54:29.776Z,1034.6
2016-09-06T07:55:30.085Z,1034.6
2016-09-06T07:56:29.797Z,1034.51
2016-09-06T07:57:29.806Z,1034.54
2016-09-06T07:58:29.810Z,1034.54
2016-09-06T07:59:29.821Z,1034.44
2016-09-06T08:00:29.830Z,1034.38
2016-09-06T08:01:29.842Z,1034.41
2016-09-06T08:02:29.846Z,1034.4
2016-09-06T08:03:29.860Z,1034.41
2016-09-06T08:04:29.868Z,1034.36
2016-09-06T08:05:29.874Z,1034.33
2016-09-06T08:06:29.884Z,1034.26
2016-09-06T08:07:29.893Z,1034.18
2016-09-06T08:08:29.901Z,1034.11
2016-09-06T08:09:29.910Z,1034.07
2016-09-06T08:10:29.918Z,1034.09
2016-09-06T08:11:29.930Z,1034.09
2016-09-06T08:12:29.941Z,1034.2
2016-09-06T08:13:29.946Z,1034.47
2016-09-06T08:14:29.955Z,1035.26
2016-09-06T08:15:29.967Z,1036.14
2016-09-06T08:16:29.971Z,1037.02
2016-09-06T08:17:29.982Z,1037.67
2016-09-06T08:18:29.988Z,1038.28
2016-09-06T08:19:29.999Z,1038.79
2016-09-06T08:20:30.005Z,1039.19
2016-09-06T08:21:30.014Z,1039.57
2016-09-06T08:22:30.021Z,1039.99
2016-09-06T08:23:30.026Z,1040.25
2016-09-06T08:24:30.034Z,1040.43
2016-09-06T08:25:30.041Z,1040.6
2016-09-06T08:26:30.048Z,1040.73
2016-09-06T08:27:30.052Z,1040.95
2016-09-06T08:28:30.056Z,1041.09
2016-09-06T08:29:30.061Z,1041.23
2016-09-06T08:30:30.065Z,1041.39
2016-09-06T08:31:30.072Z,1041.48
2016-09-06T08:32:30.071Z,1041.57
2016-09-06T08:33:30.076Z,1041.68
2016-09-06T08:34:30.078Z,1041.79
2016-09-06T08:35:30.533Z,1041.89
2016-09-06T08:36:30.088Z,1041.99
2016-09-06T08:37:30.522Z,1042.09
2016-09-06T08:38:30.089Z,1042.04
2016-09-06T08:39:30.089Z,1042.02
2016-09-06T08:40:30.094Z,1041.96
2016-09-06T08:41:30.095Z,1042.04
2016-09-06T08:42:30.100Z,1042.03
2016-09-06T08:43:30.098Z,1041.98
2016-09-06T08:44:30.934Z,1041.91
2016-09-06T08:45:30.505Z,1041.84
2016-09-06T08:46:30.101Z,1041.73
2016-09-06T08:47:30.106Z,1041.61
2016-09-06T08:48:30.103Z,1041.55
2016-09-06T08:49:30.107Z,1041.52
2016-09-06T08:50:30.357Z,1041.58
2016-09-06T08:51:30.108Z,1041.51
2016-09-06T08:52:30.110Z,1041.61
2016-09-06T08:53:30.111Z,1041.61
2016-09-06T08:54:30.114Z,1041.7
2016-09-06T08:55:30.113Z,1041.89
2016-09-06T08:56:30.112Z,1042.01
2016-09-06T08:57:30.114Z,1042.12
2016-09-06T08:58:30.114Z,1042.26
2016-09-06T08:59:30.116Z,1042.26
2016-09-06T09:00:30.117Z,1042.26
2016-09-06T09:01:30.119Z,1042.19
2016-09-06T09:03:30.118Z,1042.06
2016-09-06T09:04:30.269Z,1042.09
2016-09-06T09:05:30.119Z,1042.05
2016-09-06T09:06:30.122Z,1041.9
2016-09-06T09:07:30.220Z,1041.78
2016-09-06T09:08:30.125Z,1041.72
2016-09-06T09:10:30.125Z,1041.76
2016-09-06T09:11:30.124Z,1041.7
2016-09-06T09:12:30.522Z,1041.67
2016-09-06T09:13:30.125Z,1041.73
2016-09-06T09:14:30.128Z,1041.66
2016-09-06T09:15:30.138Z,1041.57
2016-09-06T09:16:30.130Z,1041.56
2016-09-06T09:17:30.128Z,1041.6
2016-09-06T09:18:30.133Z,1041.59
2016-09-06T09:19:30.134Z,1041.56
2016-09-06T09:20:30.134Z,1041.55
2016-09-06T09:21:30.133Z,1041.56
2016-09-06T09:22:30.139Z,1041.69
2016-09-06T09:23:30.136Z,1041.81
2016-09-06T09:24:30.139Z,1041.94
2016-09-06T09:25:30.139Z,1042.08
2016-09-06T09:26:30.139Z,1042.12
2016-09-06T09:27:30.139Z,1042.21
2016-09-06T09:28:30.139Z,1042.27
2016-09-06T09:29:30.142Z,1042.21
2016-09-06T09:30:30.142Z,1042.1
2016-09-06T09:31:30.144Z,1042.01
2016-09-06T09:32:30.141Z,1041.89
2016-09-06T09:33:30.143Z,1041.72
2016-09-06T09:34:30.144Z,1041.57
2016-09-06T09:35:30.146Z,1041.45
2016-09-06T09:36:30.146Z,1041.43
2016-09-06T09:37:30.151Z,1041.49
2016-09-06T09:38:30.147Z,1041.51
2016-09-06T09:39:30.150Z,1041.5
2016-09-06T09:40:30.152Z,1041.55
2016-09-06T09:41:30.151Z,1041.55
2016-09-06T09:42:30.154Z,1041.42
2016-09-06T09:43:30.154Z,1041.33
2016-09-06T09:44:30.158Z,1041.24
2016-09-06T09:45:30.158Z,1041.18
2016-09-06T09:46:30.154Z,1041.09
2016-09-06T09:47:30.161Z,1041.07
2016-09-06T09:48:30.157Z,1041.01
2016-09-06T09:49:30.160Z,1040.97
2016-09-06T09:51:30.903Z,1041.11
2016-09-06T09:52:31.520Z,1041.2
2016-09-06T09:53:30.168Z,1041.26
2016-09-06T09:54:30.167Z,1041.19
2016-09-06T09:55:30.169Z,1040.92
2016-09-06T09:56:30.169Z,1040.79
2016-09-06T09:57:30.174Z,1040.64
2016-09-06T09:58:30.174Z,1040.46
2016-09-06T09:59:31.759Z,1040.43
2016-09-06T10:00:30.707Z,1040.29
2016-09-06T10:01:31.347Z,1040.23
2016-09-06T10:02:30.183Z,1040.18
2016-09-06T10:03:30.182Z,1040.21
2016-09-06T10:04:30.185Z,1040.18
2016-09-06T10:05:30.185Z,1040.12
2016-09-06T10:06:30.189Z,1040.03
2016-09-06T10:07:30.191Z,1040.01
2016-09-06T10:08:30.194Z,1040.07
2016-09-06T10:09:30.196Z,1040.1
2016-09-06T10:10:30.196Z,1040.18
2016-09-06T10:11:30.201Z,1040.15
2016-09-06T10:12:30.205Z,1040.33
2016-09-06T10:13:30.207Z,1040.44
2016-09-06T10:14:30.211Z,1040.46
2016-09-06T10:15:30.211Z,1040.45
2016-09-06T10:16:30.214Z,1040.49
2016-09-06T10:17:30.217Z,1040.47
2016-09-06T10:18:30.221Z,1040.49
2016-09-06T10:19:30.219Z,1040.44
2016-09-06T10:20:30.228Z,1040.35
2016-09-06T10:21:30.226Z,1040.28
2016-09-06T10:22:30.229Z,1040.23
2016-09-06T10:23:30.234Z,1040.21
2016-09-06T10:24:30.237Z,1040.16
2016-09-06T10:25:30.635Z,1040.29
2016-09-06T10:26:30.592Z,1040.47
2016-09-06T10:27:30.241Z,1040.73
2016-09-06T10:28:30.544Z,1041.04
2016-09-06T10:29:30.644Z,1041.25
2016-09-06T10:30:30.249Z,1041.43
2016-09-06T10:31:30.249Z,1041.5
2016-09-06T10:32:30.253Z,1041.56
2016-09-06T10:33:30.254Z,1041.54
2016-09-06T10:34:30.258Z,1041.5
2016-09-06T10:35:30.259Z,1041.45
2016-09-06T10:36:30.263Z,1041.41
2016-09-06T10:38:30.266Z,1041.2
2016-09-06T10:39:30.268Z,1040.99
2016-09-06T10:40:30.269Z,1040.75
2016-09-06T10:41:30.272Z,1040.6
2016-09-06T10:42:30.275Z,1040.46
2016-09-06T10:43:30.272Z,1040.28
2016-09-06T10:44:30.278Z,1040.13
2016-09-06T10:45:30.279Z,1040.1
2016-09-06T10:46:30.282Z,1040.13
2016-09-06T10:47:30.283Z,1040.25
2016-09-06T10:48:30.287Z,1040.38
2016-09-06T10:49:30.288Z,1040.58
2016-09-06T10:50:30.291Z,1040.77
2016-09-06T10:51:30.292Z,1040.94
2016-09-06T10:52:30.296Z,1041.02
2016-09-06T10:53:30.296Z,1041.02
2016-09-06T10:54:30.300Z,1041.04
2016-09-06T10:55:30.302Z,1041.24
2016-09-06T10:56:30.305Z,1041.23
2016-09-06T10:57:30.302Z,1041.36
2016-09-06T10:58:30.303Z,1041.48
2016-09-06T10:59:30.307Z,1041.56
2016-09-06T11:00:30.311Z,1041.63
2016-09-06T11:01:30.311Z,1041.75
2016-09-06T11:02:30.313Z,1041.86
2016-09-06T11:03:30.314Z,1041.93
2016-09-06T11:04:30.319Z,1041.99
2016-09-06T11:05:30.314Z,1041.98
2016-09-06T11:06:30.321Z,1042
2016-09-06T11:07:30.317Z,1042.06
2016-09-06T11:08:30.322Z,1042.1
2016-09-06T11:09:30.321Z,1042.13
2016-09-06T11:10:30.319Z,1042.2
2016-09-06T11:11:31.056Z,1042.25
2016-09-06T11:12:30.716Z,1042.23
2016-09-06T11:13:30.322Z,1042.23
2016-09-06T11:14:30.381Z,1042.21
2016-09-06T11:15:30.423Z,1042.22
2016-09-06T11:16:30.322Z,1042.22
2016-09-06T11:17:30.326Z,1042.14
2016-09-06T11:18:30.323Z,1042.07
2016-09-06T11:19:30.329Z,1042.03
2016-09-06T11:20:31.249Z,1041.93
2016-09-06T11:21:31.118Z,1041.92
2016-09-06T11:22:30.325Z,1041.98
2016-09-06T11:23:30.325Z,1042
2016-09-06T11:24:30.327Z,1042.02
2016-09-06T11:25:30.324Z,1042.05
2016-09-06T11:26:30.323Z,1042.06
2016-09-06T11:27:30.324Z,1042.06
2016-09-06T11:28:30.327Z,1042.18
2016-09-06T11:29:30.326Z,1042.19
2016-09-06T11:30:30.326Z,1042.22
2016-09-06T11:31:30.328Z,1042.27
2016-09-06T11:32:30.324Z,1042.29
2016-09-06T11:33:30.326Z,1042.33
2016-09-06T11:34:30.326Z,1042.32
2016-09-06T11:35:30.336Z,1042.34
2016-09-06T11:36:31.027Z,1042.36
2016-09-06T11:37:30.324Z,1042.34
2016-09-06T11:38:30.326Z,1042.38
2016-09-06T11:39:30.325Z,1042.4
2016-09-06T11:40:30.575Z,1042.41
2016-09-06T11:41:30.325Z,1042.37
2016-09-06T11:42:30.325Z,1042.33
2016-09-06T11:43:31.176Z,1042.26
2016-09-06T11:44:31.429Z,1042.19
2016-09-06T11:45:30.322Z,1042.08
2016-09-06T11:46:30.327Z,1042.04
2016-09-06T11:47:30.325Z,1041.92
2016-09-06T11:48:30.328Z,1041.87
2016-09-06T11:49:30.325Z,1041.79
2016-09-06T11:50:30.325Z,1041.79
2016-09-06T11:51:30.325Z,1041.79
2016-09-06T11:52:30.325Z,1041.76
2016-09-06T11:53:30.327Z,1041.79
2016-09-06T11:54:30.321Z,1041.84
2016-09-06T11:55:30.323Z,1041.87
2016-09-06T11:56:30.331Z,1041.91
2016-09-06T11:57:30.322Z,1042.01
2016-09-06T11:58:30.325Z,1041.94
2016-09-06T11:59:30.326Z,1041.99
2016-09-06T12:00:30.326Z,1041.99
2016-09-06T12:01:30.323Z,1042
2016-09-06T12:02:30.327Z,1041.99
2016-09-06T12:03:30.325Z,1042.03
2016-09-06T12:04:30.328Z,1042.05
2016-09-06T12:05:30.324Z,1042.11
2016-09-06T12:06:30.323Z,1042.07
2016-09-06T12:07:30.322Z,1042.17
2016-09-06T12:08:30.326Z,1042.14
2016-09-06T12:09:30.328Z,1042.17
2016-09-06T12:10:30.322Z,1042.12
2016-09-06T12:11:30.325Z,1042.07
2016-09-06T12:12:30.324Z,1042.07
2016-09-06T12:13:30.324Z,1042.07